sensor_id;sensor_type;location;lat;lon;timestamp;P1;durP1;ratioP1;P2;durP2;ratioP2
25163;SDS011;13440;50.860;13.662;2022-11-12T00:01:41;1.98;;;0.98;;
25163;SDS011;13440;50.860;13.662;2022-11-12T00:04:25;1.05;;;0.95;;
25163;SDS011;13440;50.860;13.662;2022-11-12T00:07:09;1.27;;;0.63;;
25163;SDS011;13440;50.860;13.662;2022-11-12T00:09:53;1.70;;;0.90;;
25163;SDS011;13440;50.860;13.662;2022-11-12T00:12:37;2.13;;;0.65;;
25163;SDS011;13440;50.860;13.662;2022-11-12T00:15:21;2.03;;;0.90;;
25163;SDS011;13440;50.860;13.662;2022-11-12T00:18:04;1.92;;;0.80;;
25163;SDS011;13440;50.860;13.662;2022-11-12T00:20:49;2.90;;;1.05;;
25163;SDS011;13440;50.860;13.662;2022-11-12T00:23:33;1.45;;;0.98;;
25163;SDS011;13440;50.860;13.662;2022-11-12T00:26:17;2.33;;;0.80;;
25163;SDS011;13440;50.860;13.662;2022-11-12T00:29:01;0.93;;;0.82;;
25163;SDS011;13440;50.860;13.662;2022-11-12T00:31:45;3.42;;;0.88;;
25163;SDS011;13440;50.860;13.662;2022-11-12T00:34:29;2.10;;;0.88;;
25163;SDS011;13440;50.860;13.662;2022-11-12T00:37:13;1.38;;;0.73;;
25163;SDS011;13440;50.860;13.662;2022-11-12T00:39:57;3.72;;;0.88;;
25163;SDS011;13440;50.860;13.662;2022-11-12T00:42:41;0.95;;;0.65;;
25163;SDS011;13440;50.860;13.662;2022-11-12T00:45:25;1.85;;;0.75;;
25163;SDS011;13440;50.860;13.662;2022-11-12T00:48:09;1.27;;;1.00;;
25163;SDS011;13440;50.860;13.662;2022-11-12T00:51:00;4.20;;;0.80;;
25163;SDS011;13440;50.860;13.662;2022-11-12T00:53:46;2.35;;;0.70;;
25163;SDS011;13440;50.860;13.662;2022-11-12T00:56:30;1.85;;;0.90;;
25163;SDS011;13440;50.860;13.662;2022-11-12T00:59:14;2.25;;;0.90;;
25163;SDS011;13440;50.860;13.662;2022-11-12T01:01:58;1.45;;;0.80;;
25163;SDS011;13440;50.860;13.662;2022-11-12T01:04:42;1.20;;;0.65;;
25163;SDS011;13440;50.860;13.662;2022-11-12T01:07:26;2.58;;;0.98;;
25163;SDS011;13440;50.860;13.662;2022-11-12T01:10:10;2.45;;;0.63;;
25163;SDS011;13440;50.860;13.662;2022-11-12T01:12:54;1.20;;;0.60;;
25163;SDS011;13440;50.860;13.662;2022-11-12T01:15:41;0.98;;;0.70;;
25163;SDS011;13440;50.860;13.662;2022-11-12T01:18:25;0.90;;;0.80;;
25163;SDS011;13440;50.860;13.662;2022-11-12T01:21:09;1.35;;;0.80;;
25163;SDS011;13440;50.860;13.662;2022-11-12T01:23:55;2.10;;;0.93;;
25163;SDS011;13440;50.860;13.662;2022-11-12T01:26:39;1.15;;;0.60;;
25163;SDS011;13440;50.860;13.662;2022-11-12T01:29:23;1.38;;;0.60;;
25163;SDS011;13440;50.860;13.662;2022-11-12T01:32:07;0.88;;;0.52;;
25163;SDS011;13440;50.860;13.662;2022-11-12T01:34:51;1.45;;;0.75;;
25163;SDS011;13440;50.860;13.662;2022-11-12T01:37:36;1.33;;;0.60;;
25163;SDS011;13440;50.860;13.662;2022-11-12T01:40:20;1.90;;;0.80;;
25163;SDS011;13440;50.860;13.662;2022-11-12T01:43:08;0.82;;;0.60;;
25163;SDS011;13440;50.860;13.662;2022-11-12T01:45:52;2.08;;;0.80;;
25163;SDS011;13440;50.860;13.662;2022-11-12T01:48:42;0.95;;;0.50;;
25163;SDS011;13440;50.860;13.662;2022-11-12T01:51:33;3.40;;;0.80;;
25163;SDS011;13440;50.860;13.662;2022-11-12T01:54:19;3.78;;;0.68;;
25163;SDS011;13440;50.860;13.662;2022-11-12T01:57:03;1.08;;;0.80;;
25163;SDS011;13440;50.860;13.662;2022-11-12T02:02:33;2.05;;;0.80;;
25163;SDS011;13440;50.860;13.662;2022-11-12T02:05:17;1.65;;;0.73;;
25163;SDS011;13440;50.860;13.662;2022-11-12T02:08:01;1.45;;;0.70;;
25163;SDS011;13440;50.860;13.662;2022-11-12T02:10:46;1.42;;;0.80;;
25163;SDS011;13440;50.860;13.662;2022-11-12T02:13:30;1.10;;;1.00;;
25163;SDS011;13440;50.860;13.662;2022-11-12T02:16:33;1.38;;;0.68;;
25163;SDS011;13440;50.860;13.662;2022-11-12T02:19:18;1.73;;;0.77;;
25163;SDS011;13440;50.860;13.662;2022-11-12T02:22:02;1.08;;;0.70;;
25163;SDS011;13440;50.860;13.662;2022-11-12T02:24:46;2.08;;;0.75;;
25163;SDS011;13440;50.860;13.662;2022-11-12T02:27:30;0.82;;;0.70;;
25163;SDS011;13440;50.860;13.662;2022-11-12T02:30:14;1.45;;;0.70;;
25163;SDS011;13440;50.860;13.662;2022-11-12T02:32:58;2.10;;;0.90;;
25163;SDS011;13440;50.860;13.662;2022-11-12T02:35:42;1.15;;;0.52;;
25163;SDS011;13440;50.860;13.662;2022-11-12T02:38:26;0.90;;;0.70;;
25163;SDS011;13440;50.860;13.662;2022-11-12T02:41:09;1.02;;;0.70;;
25163;SDS011;13440;50.860;13.662;2022-11-12T02:43:53;0.60;;;0.60;;
25163;SDS011;13440;50.860;13.662;2022-11-12T02:46:37;1.13;;;0.45;;
25163;SDS011;13440;50.860;13.662;2022-11-12T02:49:21;1.10;;;0.52;;
25163;SDS011;13440;50.860;13.662;2022-11-12T02:52:05;2.25;;;0.80;;
25163;SDS011;13440;50.860;13.662;2022-11-12T02:54:49;0.75;;;0.70;;
25163;SDS011;13440;50.860;13.662;2022-11-12T02:57:33;1.20;;;0.60;;
25163;SDS011;13440;50.860;13.662;2022-11-12T03:00:17;2.03;;;0.80;;
25163;SDS011;13440;50.860;13.662;2022-11-12T03:03:01;2.13;;;0.85;;
25163;SDS011;13440;50.860;13.662;2022-11-12T03:05:45;1.33;;;0.80;;
25163;SDS011;13440;50.860;13.662;2022-11-12T03:08:29;1.17;;;0.90;;
25163;SDS011;13440;50.860;13.662;2022-11-12T03:11:14;0.82;;;0.70;;
25163;SDS011;13440;50.860;13.662;2022-11-12T03:13:59;2.42;;;0.88;;
25163;SDS011;13440;50.860;13.662;2022-11-12T03:16:44;2.92;;;0.70;;
25163;SDS011;13440;50.860;13.662;2022-11-12T03:19:28;0.63;;;0.60;;
25163;SDS011;13440;50.860;13.662;2022-11-12T03:22:12;1.10;;;0.63;;
25163;SDS011;13440;50.860;13.662;2022-11-12T03:24:56;0.57;;;0.57;;
25163;SDS011;13440;50.860;13.662;2022-11-12T03:27:40;1.17;;;0.52;;
25163;SDS011;13440;50.860;13.662;2022-11-12T03:30:25;1.13;;;0.65;;
25163;SDS011;13440;50.860;13.662;2022-11-12T03:33:09;0.95;;;0.80;;
25163;SDS011;13440;50.860;13.662;2022-11-12T03:35:53;1.55;;;0.82;;
25163;SDS011;13440;50.860;13.662;2022-11-12T03:38:37;1.48;;;0.77;;
25163;SDS011;13440;50.860;13.662;2022-11-12T03:41:21;1.17;;;0.80;;
25163;SDS011;13440;50.860;13.662;2022-11-12T03:44:05;1.42;;;0.75;;
25163;SDS011;13440;50.860;13.662;2022-11-12T03:46:49;1.05;;;0.70;;
25163;SDS011;13440;50.860;13.662;2022-11-12T03:49:33;1.85;;;1.00;;
25163;SDS011;13440;50.860;13.662;2022-11-12T03:52:17;0.60;;;0.52;;
25163;SDS011;13440;50.860;13.662;2022-11-12T03:55:01;1.13;;;0.60;;
25163;SDS011;13440;50.860;13.662;2022-11-12T03:57:48;1.40;;;0.60;;
25163;SDS011;13440;50.860;13.662;2022-11-12T04:00:32;3.60;;;0.70;;
25163;SDS011;13440;50.860;13.662;2022-11-12T04:03:16;3.95;;;0.77;;
25163;SDS011;13440;50.860;13.662;2022-11-12T04:06:00;0.88;;;0.57;;
25163;SDS011;13440;50.860;13.662;2022-11-12T04:09:03;0.93;;;0.50;;
25163;SDS011;13440;50.860;13.662;2022-11-12T04:11:47;1.98;;;0.60;;
25163;SDS011;13440;50.860;13.662;2022-11-12T04:14:31;1.38;;;0.80;;
25163;SDS011;13440;50.860;13.662;2022-11-12T04:17:15;1.08;;;0.80;;
25163;SDS011;13440;50.860;13.662;2022-11-12T04:20:17;1.92;;;0.75;;
25163;SDS011;13440;50.860;13.662;2022-11-12T04:23:20;2.30;;;0.73;;
25163;SDS011;13440;50.860;13.662;2022-11-12T04:26:04;1.13;;;0.70;;
25163;SDS011;13440;50.860;13.662;2022-11-12T04:29:06;2.25;;;0.60;;
25163;SDS011;13440;50.860;13.662;2022-11-12T04:32:09;1.13;;;0.73;;
25163;SDS011;13440;50.860;13.662;2022-11-12T04:34:53;2.13;;;1.17;;
25163;SDS011;13440;50.860;13.662;2022-11-12T04:37:37;1.05;;;0.63;;
25163;SDS011;13440;50.860;13.662;2022-11-12T04:40:27;1.85;;;0.90;;
25163;SDS011;13440;50.860;13.662;2022-11-12T04:43:30;2.10;;;0.90;;
25163;SDS011;13440;50.860;13.662;2022-11-12T04:46:33;1.52;;;0.60;;
25163;SDS011;13440;50.860;13.662;2022-11-12T04:49:17;1.00;;;0.50;;
25163;SDS011;13440;50.860;13.662;2022-11-12T04:52:01;1.10;;;0.70;;
25163;SDS011;13440;50.860;13.662;2022-11-12T04:54:48;1.52;;;0.65;;
25163;SDS011;13440;50.860;13.662;2022-11-12T04:57:32;1.42;;;0.70;;
25163;SDS011;13440;50.860;13.662;2022-11-12T05:00:16;1.40;;;0.80;;
25163;SDS011;13440;50.860;13.662;2022-11-12T05:03:00;2.67;;;1.00;;
25163;SDS011;13440;50.860;13.662;2022-11-12T05:05:43;1.30;;;0.90;;
25163;SDS011;13440;50.860;13.662;2022-11-12T05:08:27;0.95;;;0.60;;
25163;SDS011;13440;50.860;13.662;2022-11-12T05:11:11;1.70;;;0.60;;
25163;SDS011;13440;50.860;13.662;2022-11-12T05:13:55;2.92;;;0.70;;
25163;SDS011;13440;50.860;13.662;2022-11-12T05:16:39;1.88;;;0.68;;
25163;SDS011;13440;50.860;13.662;2022-11-12T05:19:23;0.93;;;0.70;;
25163;SDS011;13440;50.860;13.662;2022-11-12T05:22:08;1.13;;;0.60;;
25163;SDS011;13440;50.860;13.662;2022-11-12T05:24:52;1.52;;;0.75;;
25163;SDS011;13440;50.860;13.662;2022-11-12T05:27:36;2.75;;;1.55;;
25163;SDS011;13440;50.860;13.662;2022-11-12T05:30:20;0.95;;;0.55;;
25163;SDS011;13440;50.860;13.662;2022-11-12T05:33:04;2.40;;;0.60;;
25163;SDS011;13440;50.860;13.662;2022-11-12T05:35:48;1.45;;;0.88;;
25163;SDS011;13440;50.860;13.662;2022-11-12T05:38:32;0.85;;;0.70;;
25163;SDS011;13440;50.860;13.662;2022-11-12T05:41:16;1.23;;;0.68;;
25163;SDS011;13440;50.860;13.662;2022-11-12T05:44:00;1.17;;;0.65;;
25163;SDS011;13440;50.860;13.662;2022-11-12T05:46:43;2.40;;;0.77;;
25163;SDS011;13440;50.860;13.662;2022-11-12T05:49:29;1.25;;;0.70;;
25163;SDS011;13440;50.860;13.662;2022-11-12T05:52:13;1.80;;;0.88;;
25163;SDS011;13440;50.860;13.662;2022-11-12T05:54:57;1.63;;;1.00;;
25163;SDS011;13440;50.860;13.662;2022-11-12T05:57:41;3.20;;;1.00;;
25163;SDS011;13440;50.860;13.662;2022-11-12T06:00:25;1.27;;;0.70;;
25163;SDS011;13440;50.860;13.662;2022-11-12T06:03:12;2.50;;;0.50;;
25163;SDS011;13440;50.860;13.662;2022-11-12T06:05:56;1.50;;;0.80;;
25163;SDS011;13440;50.860;13.662;2022-11-12T06:08:40;3.28;;;0.90;;
25163;SDS011;13440;50.860;13.662;2022-11-12T06:11:24;3.97;;;1.20;;
25163;SDS011;13440;50.860;13.662;2022-11-12T06:14:08;2.20;;;1.00;;
25163;SDS011;13440;50.860;13.662;2022-11-12T06:16:51;0.93;;;0.55;;
25163;SDS011;13440;50.860;13.662;2022-11-12T06:19:35;3.38;;;0.73;;
25163;SDS011;13440;50.860;13.662;2022-11-12T06:22:19;1.08;;;0.80;;
25163;SDS011;13440;50.860;13.662;2022-11-12T06:25:04;3.58;;;0.88;;
25163;SDS011;13440;50.860;13.662;2022-11-12T06:27:48;1.50;;;0.70;;
25163;SDS011;13440;50.860;13.662;2022-11-12T06:30:31;0.50;;;0.50;;
25163;SDS011;13440;50.860;13.662;2022-11-12T06:33:15;1.17;;;0.70;;
25163;SDS011;13440;50.860;13.662;2022-11-12T06:36:00;1.75;;;0.90;;
25163;SDS011;13440;50.860;13.662;2022-11-12T06:38:47;1.48;;;0.70;;
25163;SDS011;13440;50.860;13.662;2022-11-12T06:41:31;1.52;;;0.80;;
25163;SDS011;13440;50.860;13.662;2022-11-12T06:44:15;4.75;;;1.80;;
25163;SDS011;13440;50.860;13.662;2022-11-12T06:47:00;2.38;;;1.95;;
25163;SDS011;13440;50.860;13.662;2022-11-12T06:49:43;1.67;;;1.00;;
25163;SDS011;13440;50.860;13.662;2022-11-12T06:52:27;45.42;;;24.13;;
25163;SDS011;13440;50.860;13.662;2022-11-12T06:55:11;4.28;;;1.45;;
25163;SDS011;13440;50.860;13.662;2022-11-12T06:57:55;2.35;;;1.30;;
25163;SDS011;13440;50.860;13.662;2022-11-12T07:00:39;3.10;;;1.98;;
25163;SDS011;13440;50.860;13.662;2022-11-12T07:03:23;2.13;;;1.48;;
25163;SDS011;13440;50.860;13.662;2022-11-12T07:06:11;8.13;;;3.67;;
25163;SDS011;13440;50.860;13.662;2022-11-12T07:08:55;26.33;;;12.98;;
25163;SDS011;13440;50.860;13.662;2022-11-12T07:11:39;10.18;;;5.55;;
25163;SDS011;13440;50.860;13.662;2022-11-12T07:14:23;2.92;;;1.52;;
25163;SDS011;13440;50.860;13.662;2022-11-12T07:17:07;2.78;;;1.65;;
25163;SDS011;13440;50.860;13.662;2022-11-12T07:19:51;2.20;;;1.38;;
25163;SDS011;13440;50.860;13.662;2022-11-12T07:22:34;2.45;;;1.90;;
25163;SDS011;13440;50.860;13.662;2022-11-12T07:25:18;2.60;;;2.00;;
25163;SDS011;13440;50.860;13.662;2022-11-12T07:28:02;3.15;;;2.10;;
25163;SDS011;13440;50.860;13.662;2022-11-12T07:30:46;2.67;;;1.92;;
25163;SDS011;13440;50.860;13.662;2022-11-12T07:33:30;6.63;;;3.88;;
25163;SDS011;13440;50.860;13.662;2022-11-12T07:36:15;2.83;;;2.07;;
25163;SDS011;13440;50.860;13.662;2022-11-12T07:38:59;7.57;;;1.75;;
25163;SDS011;13440;50.860;13.662;2022-11-12T07:41:43;4.88;;;2.00;;
25163;SDS011;13440;50.860;13.662;2022-11-12T07:44:27;3.85;;;1.85;;
25163;SDS011;13440;50.860;13.662;2022-11-12T07:47:11;3.00;;;1.70;;
25163;SDS011;13440;50.860;13.662;2022-11-12T07:49:55;2.67;;;1.60;;
25163;SDS011;13440;50.860;13.662;2022-11-12T07:52:39;3.60;;;2.17;;
25163;SDS011;13440;50.860;13.662;2022-11-12T07:55:23;2.53;;;1.80;;
25163;SDS011;13440;50.860;13.662;2022-11-12T07:58:07;1.60;;;1.50;;
25163;SDS011;13440;50.860;13.662;2022-11-12T08:00:51;1.47;;;1.23;;
25163;SDS011;13440;50.860;13.662;2022-11-12T08:03:34;2.80;;;1.40;;
25163;SDS011;13440;50.860;13.662;2022-11-12T08:06:18;1.67;;;1.40;;
25163;SDS011;13440;50.860;13.662;2022-11-12T08:09:03;1.88;;;1.30;;
25163;SDS011;13440;50.860;13.662;2022-11-12T08:11:47;2.90;;;1.65;;
25163;SDS011;13440;50.860;13.662;2022-11-12T08:14:31;2.63;;;1.80;;
25163;SDS011;13440;50.860;13.662;2022-11-12T08:17:15;2.95;;;1.70;;
25163;SDS011;13440;50.860;13.662;2022-11-12T08:19:59;5.10;;;2.20;;
25163;SDS011;13440;50.860;13.662;2022-11-12T08:22:43;5.33;;;3.20;;
25163;SDS011;13440;50.860;13.662;2022-11-12T08:25:26;1.52;;;1.30;;
25163;SDS011;13440;50.860;13.662;2022-11-12T08:28:10;1.47;;;1.30;;
25163;SDS011;13440;50.860;13.662;2022-11-12T08:30:54;2.63;;;1.37;;
25163;SDS011;13440;50.860;13.662;2022-11-12T08:33:39;2.75;;;1.70;;
25163;SDS011;13440;50.860;13.662;2022-11-12T08:36:23;1.58;;;1.42;;
25163;SDS011;13440;50.860;13.662;2022-11-12T08:39:07;2.00;;;1.50;;
25163;SDS011;13440;50.860;13.662;2022-11-12T08:41:51;3.17;;;2.03;;
25163;SDS011;13440;50.860;13.662;2022-11-12T08:44:35;4.85;;;2.20;;
25163;SDS011;13440;50.860;13.662;2022-11-12T08:47:19;1.88;;;1.50;;
25163;SDS011;13440;50.860;13.662;2022-11-12T08:50:02;2.70;;;1.65;;
25163;SDS011;13440;50.860;13.662;2022-11-12T08:52:46;2.23;;;2.00;;
25163;SDS011;13440;50.860;13.662;2022-11-12T08:55:30;2.30;;;1.88;;
25163;SDS011;13440;50.860;13.662;2022-11-12T08:58:16;3.50;;;2.20;;
25163;SDS011;13440;50.860;13.662;2022-11-12T09:01:06;2.57;;;2.00;;
25163;SDS011;13440;50.860;13.662;2022-11-12T09:03:50;2.58;;;2.38;;
25163;SDS011;13440;50.860;13.662;2022-11-12T09:06:34;3.85;;;2.60;;
25163;SDS011;13440;50.860;13.662;2022-11-12T09:09:18;4.00;;;2.57;;
25163;SDS011;13440;50.860;13.662;2022-11-12T09:12:01;2.17;;;1.83;;
25163;SDS011;13440;50.860;13.662;2022-11-12T09:14:45;6.07;;;1.97;;
25163;SDS011;13440;50.860;13.662;2022-11-12T09:17:29;2.25;;;1.67;;
25163;SDS011;13440;50.860;13.662;2022-11-12T09:20:14;2.10;;;1.90;;
25163;SDS011;13440;50.860;13.662;2022-11-12T09:23:32;1.98;;;1.73;;
25163;SDS011;13440;50.860;13.662;2022-11-12T09:26:08;3.55;;;2.08;;
25163;SDS011;13440;50.860;13.662;2022-11-12T09:28:52;3.30;;;2.80;;
25163;SDS011;13440;50.860;13.662;2022-11-12T09:31:37;4.30;;;2.30;;
25163;SDS011;13440;50.860;13.662;2022-11-12T09:34:21;4.90;;;2.20;;
25163;SDS011;13440;50.860;13.662;2022-11-12T09:37:05;19.70;;;12.85;;
25163;SDS011;13440;50.860;13.662;2022-11-12T09:39:49;5.80;;;5.30;;
25163;SDS011;13440;50.860;13.662;2022-11-12T09:42:34;8.50;;;7.63;;
25163;SDS011;13440;50.860;13.662;2022-11-12T09:45:30;7.55;;;7.05;;
25163;SDS011;13440;50.860;13.662;2022-11-12T09:48:26;4.75;;;4.45;;
25163;SDS011;13440;50.860;13.662;2022-11-12T09:57:15;5.30;;;3.80;;
25163;SDS011;13440;50.860;13.662;2022-11-12T09:59:59;3.30;;;3.00;;
25163;SDS011;13440;50.860;13.662;2022-11-12T10:02:56;3.03;;;2.72;;
25163;SDS011;13440;50.860;13.662;2022-11-12T10:05:51;3.78;;;2.75;;
25163;SDS011;13440;50.860;13.662;2022-11-12T10:14:12;3.78;;;2.25;;
25163;SDS011;13440;50.860;13.662;2022-11-12T10:17:06;3.92;;;1.90;;
25163;SDS011;13440;50.860;13.662;2022-11-12T10:19:55;3.33;;;1.90;;
25163;SDS011;13440;50.860;13.662;2022-11-12T10:25:26;1.50;;;1.40;;
25163;SDS011;13440;50.860;13.662;2022-11-12T10:28:13;1.77;;;1.40;;
25163;SDS011;13440;50.860;13.662;2022-11-12T10:31:04;1.00;;;0.90;;
25163;SDS011;13440;50.860;13.662;2022-11-12T10:33:50;2.25;;;1.27;;
25163;SDS011;13440;50.860;13.662;2022-11-12T10:36:36;12.73;;;7.85;;
25163;SDS011;13440;50.860;13.662;2022-11-12T10:39:30;12.52;;;8.85;;
25163;SDS011;13440;50.860;13.662;2022-11-12T10:42:15;21.20;;;15.07;;
25163;SDS011;13440;50.860;13.662;2022-11-12T10:45:21;5.35;;;3.92;;
25163;SDS011;13440;50.860;13.662;2022-11-12T10:48:04;2.10;;;1.80;;
25163;SDS011;13440;50.860;13.662;2022-11-12T10:50:48;12.38;;;8.55;;
25163;SDS011;13440;50.860;13.662;2022-11-12T10:53:33;19.30;;;13.55;;
25163;SDS011;13440;50.860;13.662;2022-11-12T10:56:27;4.90;;;3.03;;
25163;SDS011;13440;50.860;13.662;2022-11-12T10:59:17;20.27;;;14.90;;
25163;SDS011;13440;50.860;13.662;2022-11-12T11:02:01;3.70;;;2.10;;
25163;SDS011;13440;50.860;13.662;2022-11-12T11:04:46;2.72;;;2.40;;
25163;SDS011;13440;50.860;13.662;2022-11-12T11:07:30;1.65;;;1.50;;
25163;SDS011;13440;50.860;13.662;2022-11-12T11:13:20;2.08;;;1.88;;
25163;SDS011;13440;50.860;13.662;2022-11-12T11:16:05;6.80;;;3.87;;
25163;SDS011;13440;50.860;13.662;2022-11-12T11:18:51;1.13;;;1.02;;
25163;SDS011;13440;50.860;13.662;2022-11-12T11:21:46;3.85;;;3.00;;
25163;SDS011;13440;50.860;13.662;2022-11-12T11:27:56;30.00;;;25.33;;
25163;SDS011;13440;50.860;13.662;2022-11-12T11:30:48;9.30;;;6.25;;
25163;SDS011;13440;50.860;13.662;2022-11-12T11:33:45;41.38;;;27.38;;
25163;SDS011;13440;50.860;13.662;2022-11-12T11:36:59;18.42;;;12.80;;
25163;SDS011;13440;50.860;13.662;2022-11-12T11:45:45;2.65;;;1.17;;
25163;SDS011;13440;50.860;13.662;2022-11-12T11:57:01;1.77;;;1.40;;
25163;SDS011;13440;50.860;13.662;2022-11-12T12:05:27;8.10;;;1.93;;
25163;SDS011;13440;50.860;13.662;2022-11-12T12:11:22;78.75;;;7.13;;
25163;SDS011;13440;50.860;13.662;2022-11-12T12:17:36;3.20;;;1.60;;
25163;SDS011;13440;50.860;13.662;2022-11-12T12:20:34;2.05;;;1.60;;
25163;SDS011;13440;50.860;13.662;2022-11-12T12:23:31;3.75;;;1.30;;
25163;SDS011;13440;50.860;13.662;2022-11-12T12:26:17;3.63;;;1.33;;
25163;SDS011;13440;50.860;13.662;2022-11-12T12:29:16;3.45;;;1.55;;
25163;SDS011;13440;50.860;13.662;2022-11-12T12:32:04;1.55;;;1.40;;
25163;SDS011;13440;50.860;13.662;2022-11-12T12:44:02;1.90;;;1.40;;
25163;SDS011;13440;50.860;13.662;2022-11-12T12:47:06;3.45;;;1.75;;
25163;SDS011;13440;50.860;13.662;2022-11-12T12:49:52;2.05;;;1.27;;
25163;SDS011;13440;50.860;13.662;2022-11-12T12:55:41;3.63;;;2.40;;
25163;SDS011;13440;50.860;13.662;2022-11-12T12:58:26;12.73;;;5.82;;
25163;SDS011;13440;50.860;13.662;2022-11-12T13:04:05;6.00;;;4.75;;
25163;SDS011;13440;50.860;13.662;2022-11-12T13:06:51;4.22;;;2.50;;
25163;SDS011;13440;50.860;13.662;2022-11-12T13:09:36;2.70;;;2.50;;
25163;SDS011;13440;50.860;13.662;2022-11-12T13:12:20;5.95;;;3.35;;
25163;SDS011;13440;50.860;13.662;2022-11-12T13:15:39;6.32;;;5.35;;
25163;SDS011;13440;50.860;13.662;2022-11-12T13:21:22;3.10;;;1.58;;
25163;SDS011;13440;50.860;13.662;2022-11-12T13:24:07;6.53;;;5.53;;
25163;SDS011;13440;50.860;13.662;2022-11-12T13:26:55;2.53;;;1.70;;
25163;SDS011;13440;50.860;13.662;2022-11-12T13:29:40;4.88;;;2.17;;
25163;SDS011;13440;50.860;13.662;2022-11-12T13:40:54;28.23;;;9.50;;
25163;SDS011;13440;50.860;13.662;2022-11-12T13:43:43;8.75;;;3.15;;
25163;SDS011;13440;50.860;13.662;2022-11-12T13:46:31;5.75;;;2.55;;
25163;SDS011;13440;50.860;13.662;2022-11-12T13:49:15;5.13;;;2.40;;
25163;SDS011;13440;50.860;13.662;2022-11-12T13:52:00;6.70;;;2.35;;
25163;SDS011;13440;50.860;13.662;2022-11-12T13:54:44;7.22;;;2.10;;
25163;SDS011;13440;50.860;13.662;2022-11-12T13:57:29;5.07;;;2.17;;
25163;SDS011;13440;50.860;13.662;2022-11-12T14:03:01;5.82;;;2.20;;
25163;SDS011;13440;50.860;13.662;2022-11-12T14:05:47;3.03;;;2.33;;
25163;SDS011;13440;50.860;13.662;2022-11-12T14:08:35;9.45;;;3.38;;
25163;SDS011;13440;50.860;13.662;2022-11-12T14:11:38;9.10;;;6.55;;
25163;SDS011;13440;50.860;13.662;2022-11-12T14:14:33;13.57;;;10.63;;
25163;SDS011;13440;50.860;13.662;2022-11-12T14:17:22;29.85;;;24.30;;
25163;SDS011;13440;50.860;13.662;2022-11-12T14:20:27;21.60;;;19.27;;
25163;SDS011;13440;50.860;13.662;2022-11-12T14:23:14;14.45;;;10.40;;
25163;SDS011;13440;50.860;13.662;2022-11-12T14:25:58;4.68;;;4.10;;
25163;SDS011;13440;50.860;13.662;2022-11-12T14:28:42;4.25;;;2.33;;
25163;SDS011;13440;50.860;13.662;2022-11-12T14:31:26;5.60;;;3.50;;
25163;SDS011;13440;50.860;13.662;2022-11-12T14:34:20;5.00;;;3.70;;
25163;SDS011;13440;50.860;13.662;2022-11-12T14:37:04;5.50;;;2.45;;
25163;SDS011;13440;50.860;13.662;2022-11-12T14:39:48;44.50;;;25.00;;
25163;SDS011;13440;50.860;13.662;2022-11-12T14:42:32;180.18;;;106.32;;
25163;SDS011;13440;50.860;13.662;2022-11-12T14:45:17;109.57;;;61.03;;
25163;SDS011;13440;50.860;13.662;2022-11-12T14:48:02;71.75;;;39.05;;
25163;SDS011;13440;50.860;13.662;2022-11-12T14:50:46;80.72;;;47.75;;
25163;SDS011;13440;50.860;13.662;2022-11-12T14:53:31;66.53;;;43.72;;
25163;SDS011;13440;50.860;13.662;2022-11-12T14:56:27;19.33;;;13.70;;
25163;SDS011;13440;50.860;13.662;2022-11-12T14:59:13;16.02;;;12.35;;
25163;SDS011;13440;50.860;13.662;2022-11-12T15:04:50;4.60;;;3.42;;
25163;SDS011;13440;50.860;13.662;2022-11-12T15:07:38;5.78;;;2.90;;
25163;SDS011;13440;50.860;13.662;2022-11-12T15:10:37;7.53;;;4.97;;
25163;SDS011;13440;50.860;13.662;2022-11-12T15:13:21;11.38;;;5.68;;
25163;SDS011;13440;50.860;13.662;2022-11-12T15:16:06;6.97;;;5.22;;
25163;SDS011;13440;50.860;13.662;2022-11-12T15:19:00;5.03;;;3.97;;
25163;SDS011;13440;50.860;13.662;2022-11-12T15:21:51;7.30;;;4.95;;
25163;SDS011;13440;50.860;13.662;2022-11-12T15:24:36;7.82;;;5.43;;
25163;SDS011;13440;50.860;13.662;2022-11-12T15:27:34;8.23;;;4.53;;
25163;SDS011;13440;50.860;13.662;2022-11-12T15:35:57;9.68;;;7.10;;
25163;SDS011;13440;50.860;13.662;2022-11-12T15:38:46;14.30;;;8.30;;
25163;SDS011;13440;50.860;13.662;2022-11-12T15:41:30;10.80;;;6.40;;
25163;SDS011;13440;50.860;13.662;2022-11-12T15:44:16;10.70;;;6.93;;
25163;SDS011;13440;50.860;13.662;2022-11-12T15:47:01;11.65;;;7.35;;
25163;SDS011;13440;50.860;13.662;2022-11-12T15:49:46;10.40;;;6.88;;
25163;SDS011;13440;50.860;13.662;2022-11-12T15:52:30;9.02;;;6.70;;
25163;SDS011;13440;50.860;13.662;2022-11-12T15:55:15;19.65;;;12.50;;
25163;SDS011;13440;50.860;13.662;2022-11-12T15:58:00;11.98;;;8.50;;
25163;SDS011;13440;50.860;13.662;2022-11-12T16:00:44;9.10;;;6.70;;
25163;SDS011;13440;50.860;13.662;2022-11-12T16:03:28;15.30;;;8.75;;
25163;SDS011;13440;50.860;13.662;2022-11-12T16:06:11;10.33;;;7.33;;
25163;SDS011;13440;50.860;13.662;2022-11-12T16:08:55;8.85;;;6.53;;
25163;SDS011;13440;50.860;13.662;2022-11-12T16:11:39;13.88;;;8.18;;
25163;SDS011;13440;50.860;13.662;2022-11-12T16:14:23;11.52;;;6.47;;
25163;SDS011;13440;50.860;13.662;2022-11-12T16:17:10;8.00;;;5.65;;
25163;SDS011;13440;50.860;13.662;2022-11-12T16:19:55;6.85;;;5.03;;
25163;SDS011;13440;50.860;13.662;2022-11-12T16:22:40;7.28;;;5.03;;
25163;SDS011;13440;50.860;13.662;2022-11-12T16:25:25;5.33;;;4.20;;
25163;SDS011;13440;50.860;13.662;2022-11-12T16:28:12;6.05;;;3.88;;
25163;SDS011;13440;50.860;13.662;2022-11-12T16:30:56;6.75;;;5.38;;
25163;SDS011;13440;50.860;13.662;2022-11-12T16:33:40;4.97;;;3.75;;
25163;SDS011;13440;50.860;13.662;2022-11-12T16:36:24;5.20;;;3.80;;
25163;SDS011;13440;50.860;13.662;2022-11-12T16:39:08;5.82;;;3.60;;
25163;SDS011;13440;50.860;13.662;2022-11-12T16:41:54;6.03;;;3.90;;
25163;SDS011;13440;50.860;13.662;2022-11-12T16:44:38;6.40;;;4.45;;
25163;SDS011;13440;50.860;13.662;2022-11-12T16:47:22;4.88;;;4.05;;
25163;SDS011;13440;50.860;13.662;2022-11-12T16:50:08;5.60;;;3.67;;
25163;SDS011;13440;50.860;13.662;2022-11-12T16:52:52;5.53;;;4.35;;
25163;SDS011;13440;50.860;13.662;2022-11-12T16:55:36;3.85;;;2.63;;
25163;SDS011;13440;50.860;13.662;2022-11-12T16:58:20;6.07;;;3.10;;
25163;SDS011;13440;50.860;13.662;2022-11-12T17:01:04;6.63;;;4.75;;
25163;SDS011;13440;50.860;13.662;2022-11-12T17:03:49;6.97;;;4.05;;
25163;SDS011;13440;50.860;13.662;2022-11-12T17:06:34;5.22;;;3.40;;
25163;SDS011;13440;50.860;13.662;2022-11-12T17:09:19;4.97;;;3.22;;
25163;SDS011;13440;50.860;13.662;2022-11-12T17:12:03;8.05;;;4.47;;
25163;SDS011;13440;50.860;13.662;2022-11-12T17:14:47;7.53;;;4.60;;
25163;SDS011;13440;50.860;13.662;2022-11-12T17:17:30;6.55;;;4.35;;
25163;SDS011;13440;50.860;13.662;2022-11-12T17:20:15;6.80;;;5.03;;
25163;SDS011;13440;50.860;13.662;2022-11-12T17:22:59;8.63;;;4.83;;
25163;SDS011;13440;50.860;13.662;2022-11-12T17:25:43;7.05;;;5.00;;
25163;SDS011;13440;50.860;13.662;2022-11-12T17:28:27;7.95;;;3.88;;
25163;SDS011;13440;50.860;13.662;2022-11-12T17:31:16;7.82;;;3.97;;
25163;SDS011;13440;50.860;13.662;2022-11-12T17:34:02;7.68;;;4.57;;
25163;SDS011;13440;50.860;13.662;2022-11-12T17:36:46;9.40;;;5.03;;
25163;SDS011;13440;50.860;13.662;2022-11-12T17:39:30;10.30;;;6.20;;
25163;SDS011;13440;50.860;13.662;2022-11-12T17:42:14;8.68;;;6.03;;
25163;SDS011;13440;50.860;13.662;2022-11-12T17:44:58;8.30;;;5.75;;
25163;SDS011;13440;50.860;13.662;2022-11-12T17:47:42;4.30;;;3.22;;
25163;SDS011;13440;50.860;13.662;2022-11-12T17:50:26;4.90;;;3.50;;